Natural Steps, Arkansas
Current Conditions -  °F | °C
As of 12:53 PM on Tuesday 21 Oct 2014 (Local Time) from KLIT Reporting Station
Few Clouds Few Clouds  
Wind Chill: 77°   Ceiling: Unl
Heat Index: 78°   Visibility: 10mi
Dew Point: 51°   Wind: 0mph
Humidity: 40%   Direction: NA
Pressure: 30.1"   Gusts: NA
Location:  34.8869°N, 92.5324°W
Report Text: KLIT 211753Z 00000KT 10SM FEW040 25/11 A3010 RMK AO2 SLP193 T02500106 10250 20122 58011
Loading
Personal Weather Stations






























Interactive Weather Map
Tropical Storm Tracking
New forecast layout! Learn more

10-Day Weather Forecast

Advertisements
Track Severe Weather on mobile